Moriches, NY (11955)

2:37 PM EDT on September 22, 2014 (GMT -0400)
Long Island's South Shore | Change Station
CLOSE
Current Station
Personal Weather Station
Location: Mastic Beach, NY
Elevation: 24 ft
Nearby Weather Stations
Active Advisory: Coastal Hazard Statement

Elev 24 ft 40.78 °N, 72.83 °W | Updated 8 minutes ago

Partly Cloudy
Partly Cloudy
71.2 °F
Feels Like 75 °F
N
2.0
Wind Variable Wind from NW
Gusts 5.8 mph

Today
High -- | Low -- °F
--% Chance of Precip.
Yesterday
High -- | Low -- °F
Precip. -- in
6:38 AM 6:48 PM
Waning Crescent, 2% visible
Pressure 29.87 in
Visibility 10.0 miles
Clouds Few 4300 ft
Heat Index 75 °F
Dew Point 34 °F
Humidity 25%
Rainfall -999.00 in
Snow Depth Not available.
UV 6 out of 12
Pollen 3.30 out of 12
Ozone Good
Flu Activity Not available.
METAR KHWV 221756Z AUTO 31013G18KT 10SM FEW043 22/10 A2987 RMK AO2 SLP115 T02220100 10228 20183 51008 TSNO

More Conditions Fewer Conditions

Pressure 29.87 in
Visibility 10.0 miles
Clouds Few 4300 ft
Heat Index 75 °F
Dew Point 34 °F
Humidity 25%
Rainfall -999.00 in
Snow Depth Not available.
UV 6 out of 12
Pollen 3.30 out of 12
Ozone Good
Flu Activity Not available.
METAR KHWV 221756Z AUTO 31013G18KT 10SM FEW043 22/10 A2987 RMK AO2 SLP115 T02220100 10228 20183 51008 TSNO

More Conditions Fewer Conditions

10-Day Weather Forecast

Almanac

Astronomy

Sep. 22, 2014 Rise Set
Actual Time 6:38 AM EDT 6:48 PM EDT
Civil Twilight 6:11 AM EDT 7:15 PM EDT
Nautical Twilight 5:39 AM EDT 7:47 PM EDT
Astronomical Twilight 5:06 AM EDT 8:20 PM EDT
Moon 5:04 AM EDT 5:54 PM EDT
Length of Visible Light 13h 04m
Length of Day
12h 09m
Tomorrow will be 2m 41s shorter.
Waning Crescent, 2% of the Moon is Illuminated
Today
Waning Crescent
Sep 24
New
Oct 1
First Quarter
Oct 8
Full
Oct 15
Last Quarter

Today's Extremes

State Highs State Lows

Community

WunderPhotos

Upload Photos

1,755,507 photos uploaded!

WunderBlogs® & News

Nearby

Air Quality

  Air Quality AQ Index Pollutant
Yesterday Good
OZONE
Current Good
OZONE
Monday Good
OZONE
Monday Good
PM2.5
Tuesday Good
OZONE
Tuesday Good
PM2.5

Snow Depth

Station Depth Elevation
No new snow has been reported.

Earthquake Activity

City Distance Mag. Time & Date
No recent earthquake activity has been reported nearby.
Minimum magnitude displayed is 2.5.

Coastal Water Temperatures

Place Temperature
No Stations Reporting

Nearby Weather Stations